Time;durP1;ratioP1;P1;durP2;ratioP2;P2;SDS_P1;SDS_P2;PMS_P1;PMS_P2;Temp;Humidity;BMP_temperature;BMP_pressure;BME280_temperature;BME280_humidity;BME280_pressure;Samples;Min_cycle;Max_cycle;Signal;HPM_P1;HPM_P2
2023/09/25 00:00:46;;;;;;;;;;;20.50;41.00;;;;;;1522034;77;794;-66
2023/09/25 00:02:48;;;;;;;;;;;20.50;41.00;;;;;;1524488;77;765;-67
2023/09/25 00:04:50;;;;;;;;;;;20.50;41.00;;;;;;1523955;77;752;-65
2023/09/25 00:06:52;;;;;;;;;;;20.50;41.00;;;;;;1520432;78;742;-66
2023/09/25 00:08:54;;;;;;;;;;;20.50;41.00;;;;;;1521988;78;1112;-67
2023/09/25 00:10:57;;;;;;;;;;;20.50;41.00;;;;;;1518198;77;712;-67
2023/09/25 00:12:59;;;;;;;;;;;20.50;41.00;;;;;;1514569;76;782;-66
2023/09/25 00:15:02;;;;;;;;;;;20.50;41.00;;;;;;1516706;77;750;-66
2023/09/25 00:17:05;;;;;;;;;;;20.50;41.00;;;;;;1518362;78;729;-67
2023/09/25 00:19:07;;;;;;;;;;;20.50;41.00;;;;;;1519328;77;1909;-67
2023/09/25 00:21:08;;;;;;;;;;;20.40;41.00;;;;;;1523429;76;733;-66
2023/09/25 00:23:10;;;;;;;;;;;20.50;41.00;;;;;;1521302;77;721;-67
2023/09/25 00:25:12;;;;;;;;;;;20.50;41.00;;;;;;1519574;77;601;-68
2023/09/25 00:27:14;;;;;;;;;;;20.50;41.00;;;;;;1523065;77;763;-67
2023/09/25 00:29:16;;;;;;;;;;;20.40;40.90;;;;;;1521021;76;1108;-66
2023/09/25 00:31:18;;;;;;;;;;;20.50;41.00;;;;;;1522284;77;702;-65
2023/09/25 00:33:20;;;;;;;;;;;20.50;41.00;;;;;;1522333;77;799;-67
2023/09/25 00:35:22;;;;;;;;;;;20.40;41.00;;;;;;1517514;78;730;-66
2023/09/25 00:37:24;;;;;;;;;;;20.50;41.00;;;;;;1514311;76;776;-66
2023/09/25 00:39:26;;;;;;;;;;;20.50;41.10;;;;;;1523945;76;1954;-65
2023/09/25 00:41:28;;;;;;;;;;;20.50;41.00;;;;;;1520594;78;712;-67
2023/09/25 00:43:30;;;;;;;;;;;20.40;41.00;;;;;;1521213;77;718;-67
2023/09/25 00:45:33;;;;;;;;;;;20.50;41.10;;;;;;1520393;77;1875;-67
2023/09/25 00:47:34;;;;;;;;;;;20.40;41.00;;;;;;1522130;77;759;-67
2023/09/25 00:49:36;;;;;;;;;;;20.50;41.00;;;;;;1520268;77;1097;-67
2023/09/25 00:51:38;;;;;;;;;;;20.40;41.00;;;;;;1518136;77;707;-67
2023/09/25 00:53:41;;;;;;;;;;;20.40;41.00;;;;;;1521101;76;786;-67
2023/09/25 00:55:43;;;;;;;;;;;20.40;41.00;;;;;;1519488;77;813;-67
2023/09/25 00:57:46;;;;;;;;;;;20.50;41.10;;;;;;1519661;76;1940;-67
2023/09/25 00:59:48;;;;;;;;;;;20.40;41.00;;;;;;1520443;76;1146;-67
2023/09/25 01:01:50;;;;;;;;;;;20.40;41.00;;;;;;1523903;77;952;-64
2023/09/25 01:03:51;;;;;;;;;;;20.40;41.00;;;;;;1518210;77;776;-66
2023/09/25 01:05:53;;;;;;;;;;;20.40;41.00;;;;;;1520773;78;805;-67
2023/09/25 01:07:55;;;;;;;;;;;20.50;41.10;;;;;;1520877;77;1112;-66
2023/09/25 01:10:07;;;;;;;;;;;20.50;41.10;;;;;;1524193;78;703;-66
2023/09/25 01:12:09;;;;;;;;;;;20.40;41.00;;;;;;1523242;78;795;-67
2023/09/25 01:14:11;;;;;;;;;;;20.40;41.00;;;;;;1519208;78;741;-67
2023/09/25 01:16:13;;;;;;;;;;;20.50;41.20;;;;;;1523005;76;790;-67
2023/09/25 01:18:14;;;;;;;;;;;20.40;41.10;;;;;;1524089;78;1930;-65
2023/09/25 01:20:17;;;;;;;;;;;20.40;41.00;;;;;;1518585;77;726;-67
2023/09/25 01:22:19;;;;;;;;;;;20.50;41.10;;;;;;1516242;76;899;-66
2023/09/25 01:24:21;;;;;;;;;;;20.40;41.10;;;;;;1523992;77;685;-67
2023/09/25 01:26:23;;;;;;;;;;;20.40;41.10;;;;;;1521092;78;795;-66
2023/09/25 01:28:25;;;;;;;;;;;20.40;41.10;;;;;;1514044;77;1119;-67
2023/09/25 01:30:28;;;;;;;;;;;20.50;41.20;;;;;;1523137;78;652;-68
2023/09/25 01:32:30;;;;;;;;;;;20.50;41.30;;;;;;1518987;77;750;-67
2023/09/25 01:34:32;;;;;;;;;;;20.40;41.10;;;;;;1520230;78;780;-67
2023/09/25 01:36:33;;;;;;;;;;;20.40;41.10;;;;;;1515169;76;744;-66
2023/09/25 01:38:35;;;;;;;;;;;20.30;41.10;;;;;;1521756;77;1940;-66
2023/09/25 01:40:37;;;;;;;;;;;20.40;41.30;;;;;;1515671;78;1336;-67
2023/09/25 01:42:39;;;;;;;;;;;20.40;41.20;;;;;;1521039;78;736;-67
2023/09/25 01:44:41;;;;;;;;;;;20.40;41.20;;;;;;1522314;77;721;-64
2023/09/25 01:46:43;;;;;;;;;;;20.30;41.20;;;;;;1523975;77;827;-67
2023/09/25 01:48:45;;;;;;;;;;;20.40;41.20;;;;;;1515634;76;1112;-67
2023/09/25 01:50:47;;;;;;;;;;;20.40;41.20;;;;;;1520221;77;632;-64
2023/09/25 01:52:51;;;;;;;;;;;20.40;41.20;;;;;;1519535;77;679;-67
2023/09/25 01:54:53;;;;;;;;;;;20.40;41.10;;;;;;1520837;77;1965;-65
2023/09/25 01:56:55;;;;;;;;;;;20.30;41.20;;;;;;1516569;77;601;-67
2023/09/25 01:58:57;;;;;;;;;;;20.30;41.20;;;;;;1524859;76;1930;-67
2023/09/25 02:00:58;;;;;;;;;;;20.40;41.20;;;;;;1513075;77;758;-66
2023/09/25 02:03:00;;;;;;;;;;;20.30;41.20;;;;;;1518652;78;798;-67
2023/09/25 02:05:03;;;;;;;;;;;20.40;41.10;;;;;;1521647;77;813;-67
2023/09/25 02:07:04;;;;;;;;;;;20.40;41.20;;;;;;1523343;77;756;-66
2023/09/25 02:09:06;;;;;;;;;;;20.40;41.20;;;;;;1518649;77;1155;-66
2023/09/25 02:11:08;;;;;;;;;;;20.40;41.20;;;;;;1519233;77;715;-67
2023/09/25 02:13:10;;;;;;;;;;;20.40;41.20;;;;;;1522880;77;808;-68
2023/09/25 02:15:12;;;;;;;;;;;20.40;41.20;;;;;;1520312;78;801;-68
2023/09/25 02:17:14;;;;;;;;;;;20.40;41.30;;;;;;1515566;77;709;-66
2023/09/25 02:19:16;;;;;;;;;;;20.30;41.20;;;;;;1521429;76;1960;-68
2023/09/25 02:21:18;;;;;;;;;;;20.40;41.30;;;;;;1519902;77;766;-68
2023/09/25 02:23:20;;;;;;;;;;;20.30;41.20;;;;;;1525269;77;790;-66
2023/09/25 02:25:22;;;;;;;;;;;20.30;41.20;;;;;;1523025;77;642;-66
2023/09/25 02:27:23;;;;;;;;;;;20.30;41.30;;;;;;1518727;76;706;-66
2023/09/25 02:29:25;;;;;;;;;;;20.30;41.30;;;;;;1523921;77;1127;-66
2023/09/25 02:31:27;;;;;;;;;;;20.40;41.30;;;;;;1520215;77;776;-66
2023/09/25 02:33:29;;;;;;;;;;;20.30;41.30;;;;;;1522306;77;680;-67
2023/09/25 02:35:31;;;;;;;;;;;20.40;41.30;;;;;;1519571;77;679;-68
2023/09/25 02:37:33;;;;;;;;;;;20.30;41.30;;;;;;1512423;76;1457;-66
2023/09/25 02:39:35;;;;;;;;;;;20.30;41.30;;;;;;1522933;76;1958;-68
2023/09/25 02:41:37;;;;;;;;;;;20.30;41.30;;;;;;1520992;77;732;-67
2023/09/25 02:43:39;;;;;;;;;;;20.40;41.30;;;;;;1508475;77;641;-64
2023/09/25 02:45:42;;;;;;;;;;;20.30;41.30;;;;;;1521692;77;809;-66
2023/09/25 02:47:44;;;;;;;;;;;20.30;41.30;;;;;;1524006;76;783;-68
2023/09/25 02:49:46;;;;;;;;;;;20.30;41.40;;;;;;1523744;76;1163;-67
2023/09/25 02:51:48;;;;;;;;;;;20.30;41.40;;;;;;1521037;78;734;-67
2023/09/25 02:53:51;;;;;;;;;;;20.40;41.40;;;;;;1513109;77;722;-66
2023/09/25 02:55:53;;;;;;;;;;;20.40;41.40;;;;;;1521669;77;638;-67
2023/09/25 02:57:55;;;;;;;;;;;20.30;41.50;;;;;;1522898;77;701;-66
2023/09/25 02:59:57;;;;;;;;;;;20.30;41.60;;;;;;1522536;76;1964;-65
2023/09/25 03:01:59;;;;;;;;;;;20.40;41.60;;;;;;1517635;77;707;-68
2023/09/25 03:04:01;;;;;;;;;;;20.30;41.60;;;;;;1521659;77;812;-65
2023/09/25 03:06:03;;;;;;;;;;;20.40;41.60;;;;;;1519137;77;765;-67
2023/09/25 03:08:05;;;;;;;;;;;20.30;41.60;;;;;;1515552;78;1146;-66
2023/09/25 03:10:07;;;;;;;;;;;20.30;41.60;;;;;;1517848;77;749;-67
2023/09/25 03:12:09;;;;;;;;;;;20.30;41.60;;;;;;1522765;76;723;-68
2023/09/25 03:14:11;;;;;;;;;;;20.40;41.60;;;;;;1517238;78;716;-66
2023/09/25 03:16:14;;;;;;;;;;;20.30;41.60;;;;;;1518454;76;713;-65
2023/09/25 03:18:16;;;;;;;;;;;20.40;41.70;;;;;;1519112;77;1154;-67
2023/09/25 03:20:18;;;;;;;;;;;20.40;41.70;;;;;;1521915;77;1916;-65
2023/09/25 03:22:19;;;;;;;;;;;20.40;41.70;;;;;;1522830;77;738;-67
2023/09/25 03:24:21;;;;;;;;;;;20.30;41.70;;;;;;1524954;77;637;-67
2023/09/25 03:26:23;;;;;;;;;;;20.30;41.70;;;;;;1516070;78;688;-66
2023/09/25 03:28:25;;;;;;;;;;;20.40;41.70;;;;;;1522103;77;1152;-64
2023/09/25 03:30:27;;;;;;;;;;;20.40;41.60;;;;;;1517838;77;748;-68
2023/09/25 03:32:29;;;;;;;;;;;20.30;41.50;;;;;;1522054;77;1533;-67
2023/09/25 03:34:31;;;;;;;;;;;20.30;41.70;;;;;;1517439;77;666;-66
2023/09/25 03:36:33;;;;;;;;;;;20.40;41.60;;;;;;1519729;76;758;-65
2023/09/25 03:38:36;;;;;;;;;;;20.30;41.50;;;;;;1516667;78;1195;-67
2023/09/25 03:40:38;;;;;;;;;;;20.30;41.60;;;;;;1521371;76;787;-67
2023/09/25 03:42:42;;;;;;;;;;;20.30;41.60;;;;;;1514301;77;756;-66
2023/09/25 03:44:44;;;;;;;;;;;20.40;41.60;;;;;;1522718;77;1438;-68
2023/09/25 03:46:46;;;;;;;;;;;20.40;41.60;;;;;;1512376;77;744;-64
2023/09/25 03:48:47;;;;;;;;;;;20.30;41.50;;;;;;1516243;77;1154;-66
2023/09/25 03:50:49;;;;;;;;;;;20.30;41.60;;;;;;1519120;77;752;-69
2023/09/25 03:52:51;;;;;;;;;;;20.40;41.60;;;;;;1535581;76;753;-67
2023/09/25 03:54:53;;;;;;;;;;;20.40;41.60;;;;;;1537311;76;753;-67
2023/09/25 03:56:55;;;;;;;;;;;20.30;41.60;;;;;;1541491;76;778;-65
2023/09/25 03:58:57;;;;;;;;;;;20.40;41.60;;;;;;1535936;76;1941;-67
2023/09/25 04:00:59;;;;;;;;;;;20.40;41.50;;;;;;1500199;77;662;-68
2023/09/25 04:03:01;;;;;;;;;;;21.10;42.10;;;;;;1531768;76;782;-68
2023/09/25 04:05:03;;;;;;;;;;;20.30;41.70;;;;;;1505542;77;766;-67
2023/09/25 04:07:05;;;;;;;;;;;20.30;41.60;;;;;;1534417;76;751;-65
2023/09/25 04:09:07;;;;;;;;;;;20.30;41.60;;;;;;1517219;77;1143;-67
2023/09/25 04:11:10;;;;;;;;;;;20.30;41.50;;;;;;1511455;77;703;-67
2023/09/25 04:13:12;;;;;;;;;;;20.30;41.60;;;;;;1504420;78;694;-67
2023/09/25 04:15:14;;;;;;;;;;;20.40;41.60;;;;;;1533164;76;653;-67
2023/09/25 04:17:16;;;;;;;;;;;20.30;41.60;;;;;;1517760;77;712;-67
2023/09/25 04:19:19;;;;;;;;;;;20.40;41.60;;;;;;1564319;74;1919;-65
2023/09/25 04:21:21;;;;;;;;;;;20.30;41.60;;;;;;1569973;74;693;-65
2023/09/25 04:23:23;;;;;;;;;;;20.30;41.60;;;;;;1569372;74;722;-67
2023/09/25 04:25:27;;;;;;;;;;;20.30;41.60;;;;;;1567584;74;730;-65
2023/09/25 04:27:29;;;;;;;;;;;20.30;41.50;;;;;;1568781;74;1063;-67
2023/09/25 04:29:31;;;;;;;;;;;20.40;41.60;;;;;;1567494;74;1600;-67
2023/09/25 04:31:33;;;;;;;;;;;20.30;41.50;;;;;;1565312;74;803;-68
2023/09/25 04:33:35;;;;;;;;;;;20.30;41.50;;;;;;1568778;74;678;-66
2023/09/25 04:35:37;;;;;;;;;;;20.30;41.50;;;;;;1566583;74;749;-65
2023/09/25 04:37:39;;;;;;;;;;;20.30;41.60;;;;;;1558913;74;786;-66
2023/09/25 04:39:41;;;;;;;;;;;20.30;41.50;;;;;;1567081;74;1931;-67
2023/09/25 04:41:44;;;;;;;;;;;20.20;41.40;;;;;;1569141;74;804;-64
2023/09/25 04:43:46;;;;;;;;;;;20.30;41.50;;;;;;1565278;74;674;-67
2023/09/25 04:45:51;;;;;;;;;;;20.30;41.60;;;;;;1561496;74;749;-68
2023/09/25 04:47:51;;;;;;;;;;;20.20;41.40;;;;;;1565594;74;1697;-67
2023/09/25 04:49:53;;;;;;;;;;;20.30;41.50;;;;;;1565827;74;1090;-66
2023/09/25 04:51:55;;;;;;;;;;;20.30;41.50;;;;;;1575069;74;759;-67
2023/09/25 04:53:57;;;;;;;;;;;20.30;41.60;;;;;;1569588;74;707;-67
2023/09/25 04:55:59;;;;;;;;;;;20.20;41.40;;;;;;1565965;74;695;-67
2023/09/25 04:58:02;;;;;;;;;;;20.20;41.40;;;;;;1565653;74;1151;-66
2023/09/25 05:00:46;;;;;;;;;;;20.20;41.40;;;;;;1560361;74;1918;-67
2023/09/25 05:02:10;;;;;;;;;;;20.20;41.50;;;;;;1546034;74;1619;-68
2023/09/25 05:04:12;;;;;;;;;;;20.30;41.50;;;;;;1565152;74;791;-67
2023/09/25 05:06:15;;;;;;;;;;;20.20;41.50;;;;;;1564473;74;605;-66
2023/09/25 05:08:18;;;;;;;;;;;20.20;41.50;;;;;;1567998;74;1154;-67
2023/09/25 05:10:22;;;;;;;;;;;20.20;41.40;;;;;;1569585;74;754;-66
2023/09/25 05:12:24;;;;;;;;;;;20.20;41.40;;;;;;1568437;74;637;-67
2023/09/25 05:14:26;;;;;;;;;;;20.30;41.50;;;;;;1564932;74;699;-65
2023/09/25 05:16:28;;;;;;;;;;;20.30;41.60;;;;;;1561152;74;830;-67
2023/09/25 05:18:30;;;;;;;;;;;20.30;41.50;;;;;;1566059;74;1106;-67
2023/09/25 05:20:32;;;;;;;;;;;20.30;41.60;;;;;;1558811;74;1927;-65
2023/09/25 05:22:34;;;;;;;;;;;20.30;41.50;;;;;;1565022;74;745;-67
2023/09/25 05:24:35;;;;;;;;;;;20.30;41.60;;;;;;1564627;74;682;-66
2023/09/25 05:26:37;;;;;;;;;;;20.30;41.50;;;;;;1563156;74;1535;-66
2023/09/25 05:28:39;;;;;;;;;;;20.20;41.40;;;;;;1567149;74;1098;-67
2023/09/25 05:30:41;;;;;;;;;;;20.30;41.50;;;;;;1563076;74;695;-68
2023/09/25 05:32:44;;;;;;;;;;;20.20;41.40;;;;;;1567567;74;723;-65
2023/09/25 05:34:46;;;;;;;;;;;20.20;41.30;;;;;;1562919;74;1832;-67
2023/09/25 05:36:48;;;;;;;;;;;20.20;41.40;;;;;;1567702;74;685;-67
2023/09/25 05:38:55;;;;;;;;;;;20.30;41.50;;;;;;1564665;75;1090;-67
2023/09/25 05:40:54;;;;;;;;;;;20.30;41.50;;;;;;1564067;74;1920;-66
2023/09/25 05:42:56;;;;;;;;;;;20.30;41.50;;;;;;1562725;74;788;-67
2023/09/25 05:44:58;;;;;;;;;;;20.30;41.60;;;;;;1565096;74;728;-69
2023/09/25 05:47:00;;;;;;;;;;;20.20;41.50;;;;;;1569690;74;733;-66
2023/09/25 05:49:02;;;;;;;;;;;20.30;41.70;;;;;;1566494;74;1205;-67
2023/09/25 05:51:04;;;;;;;;;;;20.30;41.70;;;;;;1569332;74;831;-65
2023/09/25 05:53:06;;;;;;;;;;;20.30;41.60;;;;;;1566438;74;740;-67
2023/09/25 05:55:08;;;;;;;;;;;20.20;41.50;;;;;;1565502;74;793;-66
2023/09/25 05:57:09;;;;;;;;;;;20.20;41.50;;;;;;1566375;74;774;-68
2023/09/25 05:59:11;;;;;;;;;;;20.20;41.50;;;;;;1567573;74;1149;-67
2023/09/25 06:01:13;;;;;;;;;;;20.30;41.70;;;;;;1567932;74;2053;-65
2023/09/25 06:03:15;;;;;;;;;;;20.20;41.50;;;;;;1564347;74;733;-66
2023/09/25 06:05:18;;;;;;;;;;;20.20;41.60;;;;;;1567936;74;771;-66
2023/09/25 06:07:20;;;;;;;;;;;20.30;41.70;;;;;;1569790;74;733;-68
2023/09/25 06:09:22;;;;;;;;;;;20.20;41.60;;;;;;1567613;74;1160;-67
2023/09/25 06:11:24;;;;;;;;;;;20.30;41.80;;;;;;1569308;74;689;-66
2023/09/25 06:13:26;;;;;;;;;;;20.20;41.70;;;;;;1564194;74;570;-67
2023/09/25 06:15:30;;;;;;;;;;;20.20;41.70;;;;;;1567691;74;836;-66
2023/09/25 06:17:32;;;;;;;;;;;20.30;41.90;;;;;;1568852;74;1662;-66
2023/09/25 06:19:33;;;;;;;;;;;20.30;41.80;;;;;;1567830;74;1122;-66
2023/09/25 06:21:35;;;;;;;;;;;20.20;41.70;;;;;;1563561;74;1368;-66
2023/09/25 06:23:37;;;;;;;;;;;20.20;41.80;;;;;;1563228;74;856;-66
2023/09/25 06:25:41;;;;;;;;;;;20.30;41.90;;;;;;1566883;74;648;-67
2023/09/25 06:27:44;;;;;;;;;;;20.20;41.80;;;;;;1565647;74;1650;-65
2023/09/25 06:29:46;;;;;;;;;;;20.20;41.80;;;;;;1562615;74;1083;-67
2023/09/25 06:31:48;;;;;;;;;;;20.30;42.10;;;;;;1565026;74;738;-67
2023/09/25 06:33:53;;;;;;;;;;;20.20;41.90;;;;;;1557009;74;1021;-67
2023/09/25 06:35:55;;;;;;;;;;;20.30;42.10;;;;;;1563446;74;703;-66
2023/09/25 06:37:57;;;;;;;;;;;20.30;42.10;;;;;;1564489;74;724;-65
2023/09/25 06:39:59;;;;;;;;;;;20.20;42.00;;;;;;1564620;74;1902;-66
2023/09/25 06:42:00;;;;;;;;;;;20.20;42.00;;;;;;1565637;74;727;-66
2023/09/25 06:44:04;;;;;;;;;;;20.20;42.00;;;;;;1569204;74;759;-67
2023/09/25 06:46:06;;;;;;;;;;;20.20;42.00;;;;;;1566022;74;1457;-66
2023/09/25 06:48:08;;;;;;;;;;;20.20;42.10;;;;;;1567583;74;1202;-67
2023/09/25 06:50:11;;;;;;;;;;;20.20;42.10;;;;;;1568653;74;780;-67
2023/09/25 06:52:12;;;;;;;;;;;20.20;42.10;;;;;;1563977;74;783;-66
2023/09/25 06:54:14;;;;;;;;;;;20.10;42.10;;;;;;1564800;74;778;-66
2023/09/25 06:56:16;;;;;;;;;;;20.20;42.20;;;;;;1566841;74;701;-66
2023/09/25 06:58:18;;;;;;;;;;;20.30;42.30;;;;;;1569414;74;1137;-68
2023/09/25 07:00:20;;;;;;;;;;;20.20;42.20;;;;;;1570847;74;1897;-67
2023/09/25 07:02:23;;;;;;;;;;;20.20;42.20;;;;;;1557856;74;801;-67
2023/09/25 07:04:25;;;;;;;;;;;20.20;42.30;;;;;;1565423;74;740;-65
2023/09/25 07:06:27;;;;;;;;;;;20.20;42.30;;;;;;1564982;74;697;-67
2023/09/25 07:08:30;;;;;;;;;;;20.20;42.30;;;;;;1567409;74;1163;-67
2023/09/25 07:10:32;;;;;;;;;;;20.20;42.30;;;;;;1568894;74;785;-68
2023/09/25 07:12:34;;;;;;;;;;;20.20;42.40;;;;;;1568619;74;737;-67
2023/09/25 07:14:36;;;;;;;;;;;20.20;42.50;;;;;;1568480;74;787;-67
2023/09/25 07:16:38;;;;;;;;;;;20.30;42.60;;;;;;1569456;74;843;-68
2023/09/25 07:18:40;;;;;;;;;;;20.20;42.50;;;;;;1569138;74;1527;-66
2023/09/25 07:20:44;;;;;;;;;;;20.20;42.50;;;;;;1563949;74;1946;-66
2023/09/25 07:22:45;;;;;;;;;;;20.30;42.40;;;;;;1568424;74;1988;-67
2023/09/25 07:24:47;;;;;;;;;;;20.30;42.60;;;;;;1566190;74;756;-66
2023/09/25 07:26:51;;;;;;;;;;;20.20;42.50;;;;;;1567195;74;884;-65
2023/09/25 07:28:53;;;;;;;;;;;20.30;42.60;;;;;;1560417;74;1099;-67
2023/09/25 07:30:55;;;;;;;;;;;20.20;42.30;;;;;;1562485;74;781;-67
2023/09/25 07:32:57;;;;;;;;;;;20.30;42.60;;;;;;1567779;75;739;-67
2023/09/25 07:34:59;;;;;;;;;;;20.40;42.40;;;;;;1569267;74;724;-66
2023/09/25 07:37:04;;;;;;;;;;;20.40;42.40;;;;;;1562440;74;854;-67
2023/09/25 07:39:04;;;;;;;;;;;20.30;42.50;;;;;;1568319;74;1673;-67
2023/09/25 07:41:08;;;;;;;;;;;20.40;42.50;;;;;;1566657;74;1923;-66
2023/09/25 07:43:11;;;;;;;;;;;20.40;42.50;;;;;;1567123;74;2105;-67
2023/09/25 07:45:22;;;;;;;;;;;20.40;42.60;;;;;;1569394;74;762;-67
2023/09/25 07:47:18;;;;;;;;;;;20.40;42.60;;;;;;1567754;74;1669;-66
2023/09/25 07:49:22;;;;;;;;;;;20.40;42.60;;;;;;1567396;74;1150;-67
2023/09/25 07:51:24;;;;;;;;;;;20.50;42.60;;;;;;1564840;74;1414;-66
2023/09/25 07:53:31;;;;;;;;;;;20.50;42.70;;;;;;1562649;74;750;-67
2023/09/25 07:55:30;;;;;;;;;;;20.50;42.80;;;;;;1567118;74;1589;-64
2023/09/25 07:57:35;;;;;;;;;;;20.50;42.70;;;;;;1567086;74;760;-66
2023/09/25 07:59:36;;;;;;;;;;;20.50;42.70;;;;;;1565405;74;1102;-67
2023/09/25 08:01:39;;;;;;;;;;;20.50;42.60;;;;;;1563027;74;1940;-67
2023/09/25 08:03:41;;;;;;;;;;;20.50;42.80;;;;;;1568598;74;702;-67
2023/09/25 08:05:43;;;;;;;;;;;20.50;42.80;;;;;;1562740;74;817;-66
2023/09/25 08:07:47;;;;;;;;;;;20.50;42.80;;;;;;1567626;74;719;-66
2023/09/25 08:09:49;;;;;;;;;;;20.50;42.60;;;;;;1560483;74;1130;-67
2023/09/25 08:11:51;;;;;;;;;;;20.60;42.80;;;;;;1568707;74;791;-68
2023/09/25 08:13:56;;;;;;;;;;;20.50;42.80;;;;;;1563637;74;1491;-64
2023/09/25 08:16:06;;;;;;;;;;;20.50;42.80;;;;;;1567345;74;678;-66
2023/09/25 08:18:08;;;;;;;;;;;20.60;42.80;;;;;;1565601;74;1119;-66
2023/09/25 08:20:16;;;;;;;;;;;20.50;42.80;;;;;;1567093;74;733;-66
2023/09/25 08:22:17;;;;;;;;;;;20.60;42.80;;;;;;1568981;74;1888;-67
2023/09/25 08:24:19;;;;;;;;;;;20.60;42.80;;;;;;1536438;76;702;-65
2023/09/25 08:26:21;;;;;;;;;;;20.50;42.90;;;;;;1568703;74;657;-67
2023/09/25 08:28:24;;;;;;;;;;;20.60;43.00;;;;;;1565784;74;1181;-66
2023/09/25 08:30:26;;;;;;;;;;;20.60;43.00;;;;;;1566336;74;720;-64
2023/09/25 08:32:27;;;;;;;;;;;20.60;43.00;;;;;;1566644;74;686;-66
2023/09/25 08:34:30;;;;;;;;;;;20.60;43.00;;;;;;1568694;74;738;-66
2023/09/25 08:36:32;;;;;;;;;;;20.60;43.00;;;;;;1561677;74;740;-66
2023/09/25 08:38:34;;;;;;;;;;;20.60;43.00;;;;;;1567830;74;1149;-65
2023/09/25 08:40:35;;;;;;;;;;;20.60;42.90;;;;;;1568108;75;1937;-67
2023/09/25 08:42:37;;;;;;;;;;;20.60;43.00;;;;;;1564092;74;735;-66
2023/09/25 08:44:39;;;;;;;;;;;20.60;43.10;;;;;;1567495;74;781;-66
2023/09/25 08:46:41;;;;;;;;;;;20.60;43.10;;;;;;1566721;74;623;-65
2023/09/25 08:48:43;;;;;;;;;;;20.60;43.10;;;;;;1564696;74;1178;-66
2023/09/25 08:50:46;;;;;;;;;;;20.70;43.20;;;;;;1566777;74;732;-67
2023/09/25 08:52:47;;;;;;;;;;;20.60;43.20;;;;;;1568354;74;741;-66
2023/09/25 08:54:50;;;;;;;;;;;20.60;43.20;;;;;;1568890;74;794;-67
2023/09/25 08:56:52;;;;;;;;;;;20.70;43.30;;;;;;1563162;74;762;-68
2023/09/25 08:58:54;;;;;;;;;;;20.60;43.20;;;;;;1566679;74;1121;-67
2023/09/25 09:00:58;;;;;;;;;;;20.70;43.30;;;;;;1567745;74;1918;-67
2023/09/25 09:02:59;;;;;;;;;;;20.70;43.30;;;;;;1570266;74;1452;-67
2023/09/25 09:05:01;;;;;;;;;;;20.70;43.40;;;;;;1566080;74;924;-65
2023/09/25 09:07:06;;;;;;;;;;;20.70;43.30;;;;;;1565508;74;803;-64
2023/09/25 09:09:09;;;;;;;;;;;20.60;43.20;;;;;;1571344;74;1128;-67
2023/09/25 09:11:11;;;;;;;;;;;20.70;43.40;;;;;;1532451;76;1584;-67
2023/09/25 09:13:14;;;;;;;;;;;20.70;43.40;;;;;;1521472;77;743;-64
2023/09/25 09:15:17;;;;;;;;;;;20.70;43.40;;;;;;1500937;77;719;-66
2023/09/25 09:17:19;;;;;;;;;;;20.60;43.30;;;;;;1517483;77;1974;-67
2023/09/25 09:19:21;;;;;;;;;;;20.70;43.50;;;;;;1512151;77;1138;-67
2023/09/25 09:21:24;;;;;;;;;;;20.70;43.50;;;;;;1524875;76;1958;-64
2023/09/25 09:23:44;;;;;;;;;;;20.70;43.40;;;;;;1568562;74;708;-67
2023/09/25 09:25:46;;;;;;;;;;;20.60;43.30;;;;;;1564138;74;1199;-66
2023/09/25 09:27:48;;;;;;;;;;;20.70;43.50;;;;;;1566329;74;793;-66
2023/09/25 09:29:52;;;;;;;;;;;20.70;43.50;;;;;;1563899;74;1105;-67
2023/09/25 09:31:57;;;;;;;;;;;20.70;43.60;;;;;;1563947;74;793;-68
2023/09/25 09:33:59;;;;;;;;;;;20.70;43.60;;;;;;1570368;74;734;-67
2023/09/25 09:36:01;;;;;;;;;;;20.70;43.60;;;;;;1567747;74;777;-66
2023/09/25 09:38:03;;;;;;;;;;;20.70;43.60;;;;;;1566419;74;1142;-66
2023/09/25 09:40:11;;;;;;;;;;;20.70;43.60;;;;;;1567055;74;947;-68
2023/09/25 09:42:09;;;;;;;;;;;20.70;43.60;;;;;;1565525;74;1930;-68
2023/09/25 09:44:11;;;;;;;;;;;20.70;43.60;;;;;;1567233;74;787;-68
2023/09/25 09:46:13;;;;;;;;;;;20.70;43.60;;;;;;1566727;74;791;-66
2023/09/25 09:48:15;;;;;;;;;;;20.70;43.60;;;;;;1564297;74;1184;-67
2023/09/25 09:50:19;;;;;;;;;;;20.80;43.60;;;;;;1571081;74;799;-67
2023/09/25 09:52:21;;;;;;;;;;;20.70;43.60;;;;;;1563610;74;1597;-66
2023/09/25 09:54:23;;;;;;;;;;;20.80;43.70;;;;;;1563737;74;678;-67
2023/09/25 09:56:25;;;;;;;;;;;20.70;43.70;;;;;;1567747;74;797;-67
2023/09/25 09:58:27;;;;;;;;;;;20.80;43.60;;;;;;1570662;74;1182;-65
2023/09/25 10:00:29;;;;;;;;;;;20.70;43.70;;;;;;1564061;74;789;-66
2023/09/25 10:02:31;;;;;;;;;;;20.70;43.60;;;;;;1570075;74;1942;-66
2023/09/25 10:04:33;;;;;;;;;;;20.80;43.70;;;;;;1568192;74;751;-67
2023/09/25 10:06:53;;;;;;;;;;;20.80;43.70;;;;;;1568711;74;1620;-67
2023/09/25 10:09:09;;;;;;;;;;;20.80;43.70;;;;;;1565556;74;1170;-67
2023/09/25 10:11:14;;;;;;;;;;;20.80;43.70;;;;;;1532209;76;1019;-67
2023/09/25 10:13:26;;;;;;;;;;;20.80;43.70;;;;;;1565707;74;788;-67
2023/09/25 10:15:29;;;;;;;;;;;20.80;43.80;;;;;;1566931;74;809;-67
2023/09/25 10:17:44;;;;;;;;;;;20.80;43.80;;;;;;1569161;74;677;-67
2023/09/25 10:19:52;;;;;;;;;;;20.80;43.80;;;;;;1565624;74;1472;-67
2023/09/25 10:22:11;;;;;;;;;;;20.70;43.80;;;;;;1566580;74;1871;-66
2023/09/25 10:24:16;;;;;;;;;;;20.80;43.70;;;;;;1566514;74;803;-67
2023/09/25 10:26:22;;;;;;;;;;;20.70;43.80;;;;;;1562256;74;1943;-65
2023/09/25 10:28:25;;;;;;;;;;;20.80;43.70;;;;;;1567909;74;1148;-68
2023/09/25 10:30:27;;;;;;;;;;;20.80;43.80;;;;;;1556073;74;719;-66
2023/09/25 10:32:32;;;;;;;;;;;20.80;43.80;;;;;;1568386;74;769;-67
2023/09/25 10:34:34;;;;;;;;;;;20.70;43.80;;;;;;1567290;74;802;-67
2023/09/25 10:36:41;;;;;;;;;;;20.80;43.80;;;;;;1566660;74;729;-67
2023/09/25 10:38:41;;;;;;;;;;;20.80;43.80;;;;;;1567598;74;1678;-67
2023/09/25 10:40:44;;;;;;;;;;;20.80;43.90;;;;;;1569973;74;722;-67
2023/09/25 10:42:46;;;;;;;;;;;20.80;43.80;;;;;;1566792;74;1934;-66
2023/09/25 10:44:48;;;;;;;;;;;20.80;43.60;;;;;;1562797;74;741;-67
2023/09/25 10:46:49;;;;;;;;;;;20.80;43.70;;;;;;1569272;74;722;-66
2023/09/25 10:48:51;;;;;;;;;;;20.80;43.70;;;;;;1558992;74;1152;-66
2023/09/25 10:50:54;;;;;;;;;;;20.80;43.70;;;;;;1565470;74;797;-65
2023/09/25 10:52:56;;;;;;;;;;;20.80;43.80;;;;;;1564904;74;662;-68
2023/09/25 10:54:58;;;;;;;;;;;20.80;43.80;;;;;;1572565;74;678;-67
2023/09/25 10:57:00;;;;;;;;;;;20.80;43.80;;;;;;1569843;74;785;-67
2023/09/25 10:59:02;;;;;;;;;;;20.80;43.80;;;;;;1558919;74;1129;-66
2023/09/25 11:01:04;;;;;;;;;;;20.80;43.70;;;;;;1566949;74;696;-68
2023/09/25 11:03:06;;;;;;;;;;;20.80;43.60;;;;;;1567494;74;1912;-68
2023/09/25 11:05:10;;;;;;;;;;;20.80;43.70;;;;;;1569589;74;711;-67
2023/09/25 11:07:12;;;;;;;;;;;20.80;43.80;;;;;;1564803;74;729;-66
2023/09/25 11:09:17;;;;;;;;;;;20.80;43.80;;;;;;1568280;74;1147;-67
2023/09/25 11:11:19;;;;;;;;;;;20.70;43.70;;;;;;1530931;76;781;-68
2023/09/25 11:13:21;;;;;;;;;;;20.80;43.70;;;;;;1514568;77;789;-67
2023/09/25 11:15:22;;;;;;;;;;;20.80;43.80;;;;;;1529680;76;864;-67
2023/09/25 11:17:24;;;;;;;;;;;20.80;43.80;;;;;;1561093;74;835;-66
2023/09/25 11:19:26;;;;;;;;;;;20.80;43.70;;;;;;1559649;74;1088;-67
2023/09/25 11:21:31;;;;;;;;;;;20.80;43.70;;;;;;1536481;76;1968;-67
2023/09/25 11:23:33;;;;;;;;;;;20.80;43.70;;;;;;1566115;74;635;-65
2023/09/25 11:25:41;;;;;;;;;;;20.80;43.70;;;;;;1568771;74;662;-67
2023/09/25 11:27:55;;;;;;;;;;;20.80;43.80;;;;;;1537500;76;702;-67
2023/09/25 11:29:57;;;;;;;;;;;20.90;43.90;;;;;;1565678;74;1138;-67
2023/09/25 11:31:59;;;;;;;;;;;20.80;43.70;;;;;;1569814;74;784;-68
2023/09/25 11:34:01;;;;;;;;;;;20.80;43.60;;;;;;1570619;74;711;-67
2023/09/25 11:36:04;;;;;;;;;;;20.80;43.70;;;;;;1570222;74;613;-66
2023/09/25 11:38:15;;;;;;;;;;;20.80;43.80;;;;;;1535357;76;1143;-67
2023/09/25 11:40:17;;;;;;;;;;;20.80;43.80;;;;;;1562944;74;687;-67
2023/09/25 11:42:21;;;;;;;;;;;20.80;43.80;;;;;;1563753;74;1877;-68
2023/09/25 11:44:23;;;;;;;;;;;20.80;43.70;;;;;;1569108;74;815;-66
2023/09/25 11:46:24;;;;;;;;;;;20.80;43.70;;;;;;1561186;74;651;-66
2023/09/25 11:48:26;;;;;;;;;;;20.80;43.80;;;;;;1559191;74;1141;-66
2023/09/25 11:50:28;;;;;;;;;;;20.80;43.80;;;;;;1566507;74;717;-67
2023/09/25 11:52:30;;;;;;;;;;;20.80;43.80;;;;;;1569123;74;693;-67
2023/09/25 11:54:32;;;;;;;;;;;20.80;43.80;;;;;;1567603;74;668;-67
2023/09/25 11:56:34;;;;;;;;;;;20.80;43.80;;;;;;1568318;74;677;-67
2023/09/25 11:58:36;;;;;;;;;;;20.80;43.80;;;;;;1563249;74;1576;-67
2023/09/25 12:00:39;;;;;;;;;;;20.80;43.80;;;;;;1568907;74;768;-67
2023/09/25 12:02:41;;;;;;;;;;;20.80;43.90;;;;;;1568559;74;1916;-65
2023/09/25 12:04:43;;;;;;;;;;;20.80;43.80;;;;;;1571103;74;724;-67
2023/09/25 12:06:47;;;;;;;;;;;20.80;43.70;;;;;;1569315;74;754;-66
2023/09/25 12:08:49;;;;;;;;;;;20.90;43.80;;;;;;1567626;74;1503;-68
2023/09/25 12:10:51;;;;;;;;;;;20.80;43.70;;;;;;1570150;74;744;-65